TimeCDT,TemperatureF,Dew PointF,Humidity,Sea Level PressureIn,VisibilityMPH,Wind Direction,Wind SpeedMPH,Gust SpeedMPH,PrecipitationIn,Events,Conditions,WindDirDegrees,DateUTC
12:53 AM,52.0,46.0,80,29.99,10.0,East,6.9,-,N/A,,Clear,80,2013-04-14 05:53:00
1:53 AM,53.1,46.0,77,29.96,10.0,East,6.9,-,N/A,,Clear,80,2013-04-14 06:53:00
2:53 AM,50.0,45.0,83,29.96,10.0,ENE,4.6,-,N/A,,Clear,70,2013-04-14 07:53:00
3:53 AM,50.0,45.0,83,29.94,10.0,East,5.8,-,N/A,,Clear,90,2013-04-14 08:53:00
4:53 AM,53.1,44.1,71,29.95,10.0,East,5.8,-,N/A,,Clear,100,2013-04-14 09:53:00
5:53 AM,54.0,45.0,72,29.94,10.0,ESE,8.1,-,N/A,,Overcast,110,2013-04-14 10:53:00
6:53 AM,55.0,43.0,64,29.96,10.0,ESE,5.8,-,N/A,,Overcast,120,2013-04-14 11:53:00
7:53 AM,57.0,44.1,62,29.96,10.0,SE,5.8,-,N/A,,Overcast,130,2013-04-14 12:53:00
8:53 AM,59.0,43.0,55,29.97,10.0,ESE,9.2,-,N/A,,Overcast,120,2013-04-14 13:53:00
9:53 AM,62.1,43.0,50,29.96,10.0,SE,9.2,-,N/A,,Overcast,130,2013-04-14 14:53:00
10:53 AM,63.0,42.1,46,29.97,10.0,SSE,13.8,-,N/A,,Overcast,160,2013-04-14 15:53:00
11:53 AM,63.0,45.0,52,29.94,10.0,SSE,19.6,25.3,N/A,,Overcast,160,2013-04-14 16:53:00
12:53 PM,60.8,51.8,72,29.99,10.0,SSE,17.3,28.8,N/A,Rain,Light Rain,160,2013-04-14 17:53:00
1:25 PM,59.0,53.6,82,29.98,9.0,South,10.4,-,0.00,Rain,Light Rain,180,2013-04-14 18:25:00
1:53 PM,60.1,53.1,78,29.95,10.0,SSE,11.5,-,0.01,,Overcast,150,2013-04-14 18:53:00
2:53 PM,60.8,53.6,77,29.88,10.0,ESE,17.3,25.3,N/A,,Overcast,110,2013-04-14 19:53:00
3:53 PM,62.1,52.0,70,29.92,10.0,SE,6.9,-,N/A,,Overcast,140,2013-04-14 20:53:00
4:53 PM,60.1,55.0,83,29.88,10.0,ESE,11.5,-,0.00,Rain,Light Rain,110,2013-04-14 21:53:00
5:53 PM,60.1,54.0,80,29.87,10.0,ESE,16.1,-,N/A,,Overcast,120,2013-04-14 22:53:00
6:44 PM,59.0,51.8,77,29.88,10.0,ESE,11.5,20.7,N/A,,Overcast,120,2013-04-14 23:44:00
6:53 PM,59.0,52.0,78,29.88,10.0,SE,11.5,-,N/A,,Overcast,130,2013-04-14 23:53:00
7:53 PM,57.9,52.0,81,29.88,10.0,SE,13.8,-,N/A,,Overcast,130,2013-04-15 00:53:00
8:18 PM,57.2,53.6,88,29.90,10.0,SE,8.1,-,N/A,,Overcast,130,2013-04-15 01:18:00
8:41 PM,57.2,51.8,82,29.90,10.0,ESE,10.4,-,N/A,,Overcast,120,2013-04-15 01:41:00
8:53 PM,57.9,52.0,81,29.88,10.0,ESE,11.5,-,N/A,,Overcast,120,2013-04-15 01:53:00
9:53 PM,57.9,52.0,81,29.90,10.0,SE,8.1,-,N/A,,Overcast,130,2013-04-15 02:53:00
10:06 PM,57.2,53.6,88,29.91,10.0,SE,9.2,-,N/A,,Overcast,130,2013-04-15 03:06:00
10:53 PM,57.9,53.1,84,29.90,10.0,ESE,8.1,-,N/A,,Overcast,120,2013-04-15 03:53:00
11:53 PM,57.9,53.1,84,29.90,10.0,ESE,6.9,-,N/A,,Overcast,120,2013-04-15 04:53:00